createdAt,value
2022-10-26T00:00:10.319Z,2.30
2022-10-26T00:02:37.070Z,2.50
2022-10-26T00:05:04.156Z,3.83
2022-10-26T00:07:31.129Z,2.40
2022-10-26T00:09:57.981Z,2.58
2022-10-26T00:12:24.844Z,2.60
2022-10-26T00:14:51.554Z,2.40
2022-10-26T00:17:18.413Z,2.42
2022-10-26T00:19:45.194Z,2.63
2022-10-26T00:22:12.132Z,2.70
2022-10-26T00:24:38.837Z,2.42
2022-10-26T00:27:05.596Z,2.47
2022-10-26T00:29:32.331Z,2.42
2022-10-26T00:31:59.012Z,2.05
2022-10-26T00:34:25.798Z,2.25
2022-10-26T00:36:52.605Z,2.10
2022-10-26T00:39:19.332Z,2.17
2022-10-26T00:41:46.039Z,2.17
2022-10-26T00:45:01.789Z,2.00
2022-10-26T00:47:35.800Z,2.30
2022-10-26T00:50:15.178Z,1.90
2022-10-26T00:52:42.583Z,2.10
2022-10-26T00:55:09.523Z,1.70
2022-10-26T00:57:39.129Z,2.00
2022-10-26T01:00:08.751Z,2.38
2022-10-26T01:02:35.788Z,2.05
2022-10-26T01:05:06.155Z,2.53
2022-10-26T01:07:34.354Z,2.30
2022-10-26T01:10:01.761Z,2.15
2022-10-26T01:12:28.502Z,2.28
2022-10-26T01:14:55.401Z,2.00
2022-10-26T01:17:54.062Z,1.90
2022-10-26T01:20:38.896Z,2.13
2022-10-26T01:23:26.687Z,1.92
2022-10-26T01:26:00.640Z,1.77
2022-10-26T01:29:04.781Z,1.77
2022-10-26T01:31:41.124Z,1.88
2022-10-26T01:34:30.416Z,2.00
2022-10-26T01:37:02.674Z,1.60
2022-10-26T01:40:11.888Z,2.10
2022-10-26T01:42:44.983Z,1.90
2022-10-26T01:45:12.443Z,1.90
2022-10-26T01:47:40.542Z,2.33
2022-10-26T01:50:08.890Z,1.88
2022-10-26T01:52:35.831Z,1.83
2022-10-26T01:55:27.115Z,2.38
2022-10-26T01:58:00.780Z,1.98
2022-10-26T02:00:27.815Z,1.85
2022-10-26T02:03:16.718Z,1.80
2022-10-26T02:06:06.571Z,2.05
2022-10-26T02:08:55.679Z,1.95
2022-10-26T02:11:39.348Z,1.90
2022-10-26T02:14:19.490Z,1.73
2022-10-26T02:16:56.528Z,1.80
2022-10-26T02:19:29.501Z,1.67
2022-10-26T02:22:04.563Z,2.20
2022-10-26T02:24:34.852Z,1.80
2022-10-26T02:27:04.500Z,2.20
2022-10-26T02:29:33.282Z,1.90
2022-10-26T02:32:01.418Z,2.10
2022-10-26T02:34:30.475Z,1.80
2022-10-26T02:37:00.868Z,2.20
2022-10-26T02:39:32.508Z,1.90
2022-10-26T02:42:03.275Z,1.60
2022-10-26T02:44:34.913Z,1.95
2022-10-26T02:47:02.348Z,1.88
2022-10-26T02:49:29.761Z,1.70
2022-10-26T02:52:03.108Z,1.70
2022-10-26T02:54:44.912Z,1.70
2022-10-26T02:57:34.390Z,1.98
2022-10-26T03:00:01.873Z,1.80
2022-10-26T03:02:30.436Z,1.33
2022-10-26T03:05:06.404Z,1.75
2022-10-26T03:07:33.135Z,1.40
2022-10-26T03:09:59.876Z,1.85
2022-10-26T03:12:26.579Z,1.50
2022-10-26T03:14:53.406Z,1.50
2022-10-26T03:17:20.104Z,1.48
2022-10-26T03:19:46.831Z,2.03
2022-10-26T03:22:13.743Z,1.45
2022-10-26T03:24:40.936Z,1.30
2022-10-26T03:27:07.675Z,1.50
2022-10-26T03:29:34.361Z,1.30
2022-10-26T03:32:01.100Z,1.30
2022-10-26T03:34:27.774Z,1.40
2022-10-26T03:36:54.475Z,1.35
2022-10-26T03:39:21.244Z,1.58
2022-10-26T03:41:48.242Z,1.50
2022-10-26T03:44:14.985Z,1.38
2022-10-26T03:46:41.758Z,1.33
2022-10-26T03:49:08.560Z,1.48
2022-10-26T03:51:35.251Z,1.70
2022-10-26T03:54:01.981Z,1.23
2022-10-26T03:56:28.720Z,1.60
2022-10-26T03:58:55.461Z,1.38
2022-10-26T04:01:22.642Z,1.40
2022-10-26T04:03:49.561Z,1.30
2022-10-26T04:06:16.430Z,1.50
2022-10-26T04:08:43.208Z,1.60
2022-10-26T04:11:09.978Z,1.70
2022-10-26T04:13:36.759Z,1.40
2022-10-26T04:16:03.645Z,1.38
2022-10-26T04:18:30.345Z,1.42
2022-10-26T04:21:01.229Z,1.50
2022-10-26T04:23:28.098Z,1.60
2022-10-26T04:25:54.807Z,1.40
2022-10-26T04:28:21.622Z,1.60
2022-10-26T04:30:48.569Z,1.60
2022-10-26T04:33:15.347Z,1.48
2022-10-26T04:35:42.986Z,1.58
2022-10-26T04:38:10.468Z,1.98
2022-10-26T04:40:37.224Z,1.80
2022-10-26T04:43:03.976Z,1.90
2022-10-26T04:45:31.181Z,2.00
2022-10-26T04:48:10.929Z,2.05
2022-10-26T04:50:38.468Z,2.25
2022-10-26T04:53:07.410Z,1.90
2022-10-26T04:55:35.758Z,1.73
2022-10-26T04:58:02.992Z,1.75
2022-10-26T05:00:32.642Z,1.70
2022-10-26T05:03:05.112Z,1.98
2022-10-26T05:05:33.487Z,1.90
2022-10-26T05:08:00.576Z,1.80
2022-10-26T05:10:27.854Z,1.80
2022-10-26T05:12:56.153Z,1.75
2022-10-26T05:15:23.249Z,2.00
2022-10-26T05:18:09.293Z,1.73
2022-10-26T05:20:36.946Z,1.70
2022-10-26T05:23:06.577Z,1.90
2022-10-26T05:25:35.907Z,1.60
2022-10-26T05:28:09.591Z,1.65
2022-10-26T05:30:36.688Z,1.83
2022-10-26T05:33:03.593Z,1.52
2022-10-26T05:35:31.387Z,1.80
2022-10-26T05:37:58.632Z,1.52
2022-10-26T05:40:25.801Z,1.42
2022-10-26T05:42:52.969Z,1.80
2022-10-26T05:45:20.376Z,2.08
2022-10-26T05:47:47.365Z,1.80
2022-10-26T05:50:14.821Z,1.67
2022-10-26T05:52:46.490Z,2.00
2022-10-26T05:55:17.834Z,1.92
2022-10-26T05:57:44.850Z,2.00
2022-10-26T06:00:21.361Z,1.83
2022-10-26T06:03:06.670Z,1.75
2022-10-26T06:05:39.581Z,2.17
2022-10-26T06:08:11.012Z,1.98
2022-10-26T06:10:39.272Z,1.98
2022-10-26T06:13:06.576Z,1.85
2022-10-26T06:15:43.287Z,1.73
2022-10-26T06:18:09.922Z,1.60
2022-10-26T06:20:53.612Z,2.08
2022-10-26T06:23:51.570Z,2.22
2022-10-26T06:26:48.745Z,2.05
2022-10-26T06:29:30.337Z,2.10
2022-10-26T06:31:58.388Z,1.80
2022-10-26T06:34:34.069Z,2.17
2022-10-26T06:37:02.005Z,2.17
2022-10-26T06:39:31.611Z,1.80
2022-10-26T06:41:58.664Z,2.13
2022-10-26T06:44:26.047Z,1.63
2022-10-26T06:46:57.987Z,2.03
2022-10-26T06:49:58.267Z,1.90
2022-10-26T06:52:29.984Z,1.90
2022-10-26T06:54:57.378Z,1.70
2022-10-26T06:57:29.821Z,2.03
2022-10-26T07:00:07.421Z,2.00
2022-10-26T07:02:34.664Z,1.90
2022-10-26T07:05:20.299Z,2.13
2022-10-26T07:08:07.513Z,2.20
2022-10-26T07:10:38.799Z,2.10
2022-10-26T07:13:06.883Z,2.25
2022-10-26T07:15:38.243Z,2.13
2022-10-26T07:18:06.687Z,2.08
2022-10-26T07:20:43.225Z,2.17
2022-10-26T07:23:13.458Z,1.90
2022-10-26T07:25:40.497Z,2.08
2022-10-26T07:28:10.570Z,1.60
2022-10-26T07:30:39.509Z,2.10
2022-10-26T07:33:09.481Z,2.20
2022-10-26T07:35:36.765Z,2.28
2022-10-26T07:38:04.449Z,2.22
2022-10-26T07:40:31.774Z,2.58
2022-10-26T07:42:59.934Z,2.08
2022-10-26T07:45:27.835Z,2.33
2022-10-26T07:47:54.612Z,1.98
2022-10-26T07:50:21.945Z,2.17
2022-10-26T07:52:49.029Z,2.20
2022-10-26T07:55:16.394Z,2.33
2022-10-26T07:57:43.107Z,2.00
2022-10-26T08:00:10.961Z,2.20
2022-10-26T08:02:56.846Z,2.28
2022-10-26T08:05:47.599Z,2.20
2022-10-26T08:08:34.984Z,2.63
2022-10-26T08:11:22.015Z,2.05
2022-10-26T08:14:10.985Z,1.90
2022-10-26T08:16:58.006Z,2.00
2022-10-26T08:19:47.817Z,2.03
2022-10-26T08:22:34.868Z,1.85
2022-10-26T08:25:21.959Z,1.70
2022-10-26T08:28:09.078Z,2.20
2022-10-26T08:30:56.931Z,1.70
2022-10-26T08:33:45.014Z,1.83
2022-10-26T08:36:32.515Z,1.88
2022-10-26T08:39:19.690Z,2.30
2022-10-26T08:42:17.650Z,1.80
2022-10-26T08:45:15.957Z,1.50
2022-10-26T08:47:48.148Z,1.90
2022-10-26T08:50:26.918Z,1.70
2022-10-26T08:53:25.535Z,1.70
2022-10-26T08:56:03.727Z,1.70
2022-10-26T08:58:46.395Z,2.05
2022-10-26T09:01:13.238Z,1.63
2022-10-26T09:03:40.270Z,1.90
2022-10-26T09:06:31.437Z,1.55
2022-10-26T09:09:13.701Z,1.40
2022-10-26T09:11:55.478Z,1.70
2022-10-26T09:14:28.181Z,1.65
2022-10-26T09:17:06.396Z,1.48
2022-10-26T09:19:55.339Z,1.88
2022-10-26T09:22:41.234Z,1.65
2022-10-26T09:25:20.540Z,1.50
2022-10-26T09:28:00.597Z,1.40
2022-10-26T09:30:27.897Z,1.65
2022-10-26T09:33:00.065Z,1.60
2022-10-26T09:35:31.234Z,1.58
2022-10-26T09:38:03.972Z,1.70
2022-10-26T09:40:41.165Z,1.85
2022-10-26T09:43:16.893Z,1.70
2022-10-26T09:45:49.098Z,1.33
2022-10-26T09:48:33.650Z,1.45
2022-10-26T09:51:03.674Z,1.40
2022-10-26T09:53:32.054Z,1.60
2022-10-26T09:56:08.509Z,1.45
2022-10-26T09:58:46.688Z,1.52
2022-10-26T10:01:22.628Z,1.50
2022-10-26T10:04:16.832Z,1.60
2022-10-26T10:06:45.287Z,1.40
2022-10-26T10:09:23.472Z,1.50
2022-10-26T10:12:03.130Z,1.58
2022-10-26T10:14:58.557Z,1.60
2022-10-26T10:17:26.390Z,1.95
2022-10-26T10:19:53.429Z,1.50
2022-10-26T10:22:24.816Z,1.60
2022-10-26T10:25:03.352Z,1.40
2022-10-26T10:27:31.719Z,1.73
2022-10-26T10:30:03.292Z,1.60
2022-10-26T10:32:35.721Z,2.10
2022-10-26T10:35:23.506Z,1.60
2022-10-26T10:37:51.507Z,1.55
2022-10-26T10:40:21.678Z,1.40
2022-10-26T10:42:50.911Z,1.35
2022-10-26T10:45:24.308Z,1.60
2022-10-26T10:48:17.657Z,1.60
2022-10-26T10:50:52.285Z,1.30
2022-10-26T10:53:43.715Z,1.35
2022-10-26T10:56:38.256Z,1.30
2022-10-26T10:59:30.817Z,1.52
2022-10-26T11:02:06.456Z,1.27
2022-10-26T11:04:48.194Z,1.67
2022-10-26T11:07:16.630Z,1.42
2022-10-26T11:09:46.992Z,1.33
2022-10-26T11:12:51.778Z,1.50
2022-10-26T11:15:22.287Z,1.35
2022-10-26T11:18:07.656Z,1.40
2022-10-26T11:20:39.766Z,1.60
2022-10-26T11:23:22.662Z,1.30
2022-10-26T11:25:55.691Z,1.30
2022-10-26T11:28:41.001Z,1.23
2022-10-26T11:31:14.709Z,1.10
2022-10-26T11:33:47.146Z,1.20
2022-10-26T11:36:21.119Z,1.52
2022-10-26T11:39:21.088Z,1.10
2022-10-26T11:41:57.106Z,1.30
2022-10-26T11:44:37.942Z,1.10
2022-10-26T11:47:14.531Z,1.38
2022-10-26T11:50:06.463Z,1.30
2022-10-26T11:52:52.369Z,1.38
2022-10-26T11:55:21.162Z,1.30
2022-10-26T11:57:49.689Z,1.20
2022-10-26T12:00:20.096Z,1.00
2022-10-26T12:03:03.436Z,1.55
2022-10-26T12:05:49.703Z,1.10
2022-10-26T12:08:41.679Z,1.17
2022-10-26T12:11:27.071Z,1.83
2022-10-26T12:14:23.407Z,1.25
2022-10-26T12:17:00.238Z,1.13
2022-10-26T12:19:52.070Z,1.35
2022-10-26T12:22:21.365Z,1.27
2022-10-26T12:25:15.621Z,1.10
2022-10-26T12:27:42.576Z,1.58
2022-10-26T12:30:18.301Z,1.40
2022-10-26T12:32:45.005Z,1.50
2022-10-26T12:35:30.463Z,1.25
2022-10-26T12:37:57.438Z,1.40
2022-10-26T12:40:33.134Z,1.20
2022-10-26T12:43:15.080Z,1.08
2022-10-26T12:45:46.627Z,1.35
2022-10-26T12:48:38.501Z,1.10
2022-10-26T12:51:27.442Z,1.10
2022-10-26T12:54:18.554Z,1.33
2022-10-26T12:56:56.777Z,1.30
2022-10-26T12:59:23.634Z,1.30
2022-10-26T13:02:23.677Z,1.30
2022-10-26T13:05:21.485Z,0.93
2022-10-26T13:07:49.846Z,1.27
2022-10-26T13:10:26.008Z,1.38
2022-10-26T13:12:59.255Z,1.20
2022-10-26T13:15:37.013Z,1.30
2022-10-26T13:18:13.919Z,1.20
2022-10-26T13:21:09.128Z,0.90
2022-10-26T13:23:39.679Z,1.20
2022-10-26T13:26:06.711Z,1.30
2022-10-26T13:28:47.512Z,1.30
2022-10-26T13:31:39.523Z,1.02
2022-10-26T13:34:18.581Z,1.30
2022-10-26T13:36:51.433Z,1.00
2022-10-26T13:39:31.473Z,1.10
2022-10-26T13:42:00.298Z,1.00
2022-10-26T13:44:33.541Z,1.20
2022-10-26T13:47:05.243Z,1.48
2022-10-26T13:49:40.378Z,1.02
2022-10-26T13:52:17.392Z,1.00
2022-10-26T13:54:59.052Z,1.00
2022-10-26T13:57:34.062Z,1.20
2022-10-26T14:00:07.935Z,1.17
2022-10-26T14:02:34.690Z,1.17
2022-10-26T14:05:03.922Z,1.13
2022-10-26T14:07:54.242Z,1.10
2022-10-26T14:10:32.796Z,1.20
2022-10-26T14:13:00.981Z,1.20
2022-10-26T14:15:31.908Z,1.10
2022-10-26T14:18:01.390Z,1.10
2022-10-26T14:20:30.241Z,1.10
2022-10-26T14:22:57.187Z,1.10
2022-10-26T14:25:42.640Z,1.42
2022-10-26T14:28:27.369Z,1.02
2022-10-26T14:30:54.286Z,1.70
2022-10-26T14:33:28.075Z,1.02
2022-10-26T14:35:55.242Z,1.25
2022-10-26T14:38:27.880Z,1.25
2022-10-26T14:40:57.527Z,1.02
2022-10-26T14:43:25.864Z,1.00
2022-10-26T14:45:54.171Z,1.13
2022-10-26T14:48:22.870Z,1.15
2022-10-26T14:51:21.242Z,1.50
2022-10-26T14:53:53.132Z,1.67
2022-10-26T14:56:40.001Z,1.38
2022-10-26T14:59:25.482Z,1.20
2022-10-26T15:02:15.572Z,1.05
2022-10-26T15:04:57.193Z,1.15
2022-10-26T15:07:24.629Z,1.40
2022-10-26T15:09:53.264Z,1.10
2022-10-26T15:12:23.294Z,1.50
2022-10-26T15:14:51.152Z,1.30
2022-10-26T15:17:27.702Z,1.30
2022-10-26T15:19:55.588Z,1.20
2022-10-26T15:22:30.942Z,1.40
2022-10-26T15:25:02.900Z,0.98
2022-10-26T15:27:29.997Z,1.45
2022-10-26T15:30:20.484Z,1.52
2022-10-26T15:32:47.655Z,1.10
2022-10-26T15:35:23.150Z,1.02
2022-10-26T15:37:52.344Z,1.20
2022-10-26T15:40:19.875Z,1.33
2022-10-26T15:42:51.242Z,1.30
2022-10-26T15:45:27.824Z,1.13
2022-10-26T15:47:57.317Z,1.17
2022-10-26T15:50:26.965Z,1.40
2022-10-26T15:53:02.665Z,1.10
2022-10-26T15:55:30.587Z,1.63
2022-10-26T15:57:57.631Z,1.40
2022-10-26T16:00:24.770Z,1.52
2022-10-26T16:02:51.592Z,2.22
2022-10-26T16:05:18.804Z,1.88
2022-10-26T16:07:47.923Z,2.50
2022-10-26T16:10:23.087Z,1.90
2022-10-26T16:12:50.356Z,2.08
2022-10-26T16:15:18.874Z,2.28
2022-10-26T16:17:46.565Z,2.50
2022-10-26T16:20:17.093Z,1.52
2022-10-26T16:22:48.473Z,1.40
2022-10-26T16:25:17.909Z,1.67
2022-10-26T16:27:45.148Z,1.45
2022-10-26T16:30:14.061Z,1.50
2022-10-26T16:32:41.684Z,1.65
2022-10-26T16:35:09.900Z,1.90
2022-10-26T16:37:36.861Z,1.50
2022-10-26T16:40:04.876Z,1.60
2022-10-26T16:42:32.664Z,1.30
2022-10-26T16:45:02.623Z,1.60
2022-10-26T16:47:32.318Z,1.40
2022-10-26T16:49:59.056Z,2.08
2022-10-26T16:52:25.937Z,1.88
2022-10-26T16:54:54.876Z,2.03
2022-10-26T16:57:21.763Z,1.50
2022-10-26T16:59:48.528Z,1.40
2022-10-26T17:02:15.704Z,1.30
2022-10-26T17:04:42.899Z,1.30
2022-10-26T17:07:10.889Z,1.60
2022-10-26T17:09:37.791Z,1.10
2022-10-26T17:12:05.402Z,1.15
2022-10-26T17:14:32.724Z,1.67
2022-10-26T17:16:59.547Z,1.60
2022-10-26T17:19:26.401Z,1.40
2022-10-26T17:21:53.361Z,1.90
2022-10-26T17:24:20.205Z,2.30
2022-10-26T17:26:47.070Z,1.58
2022-10-26T17:29:14.221Z,1.65
2022-10-26T17:31:41.271Z,1.95
2022-10-26T17:34:08.053Z,1.92
2022-10-26T17:36:34.929Z,1.90
2022-10-26T17:39:01.896Z,1.95
2022-10-26T17:41:29.526Z,1.85
2022-10-26T17:43:56.405Z,1.83
2022-10-26T17:46:25.443Z,1.80
2022-10-26T17:49:00.085Z,1.92
2022-10-26T17:51:29.124Z,1.80
2022-10-26T17:53:57.123Z,1.70
2022-10-26T17:56:26.619Z,1.48
2022-10-26T17:58:55.818Z,1.70
2022-10-26T18:01:23.074Z,1.50
2022-10-26T18:03:50.533Z,1.73
2022-10-26T18:06:17.560Z,1.25
2022-10-26T18:08:45.092Z,1.42
2022-10-26T18:11:25.338Z,1.30
2022-10-26T18:13:54.597Z,1.50
2022-10-26T18:16:22.677Z,1.60
2022-10-26T18:18:57.358Z,1.50
2022-10-26T18:21:24.187Z,1.30
2022-10-26T18:23:53.537Z,1.52
2022-10-26T18:26:23.257Z,1.60
2022-10-26T18:28:50.230Z,1.50
2022-10-26T18:31:20.085Z,1.52
2022-10-26T18:33:47.237Z,1.88
2022-10-26T18:36:16.402Z,1.95
2022-10-26T18:38:44.026Z,1.75
2022-10-26T18:41:12.371Z,1.85
2022-10-26T18:43:44.340Z,1.50
2022-10-26T18:46:17.549Z,1.95
2022-10-26T18:48:47.897Z,1.55
2022-10-26T18:51:16.949Z,1.90
2022-10-26T18:53:44.756Z,1.80
2022-10-26T18:56:16.973Z,1.95
2022-10-26T18:58:46.293Z,1.80
2022-10-26T19:01:15.932Z,1.80
2022-10-26T19:03:43.823Z,1.80
2022-10-26T19:06:16.696Z,1.70
2022-10-26T19:08:44.476Z,1.80
2022-10-26T19:11:17.012Z,1.77
2022-10-26T19:13:44.351Z,1.80
2022-10-26T19:16:17.326Z,1.90
2022-10-26T19:18:56.162Z,1.90
2022-10-26T19:21:24.749Z,1.88
2022-10-26T19:23:53.351Z,1.77
2022-10-26T19:26:23.015Z,1.98
2022-10-26T19:29:08.268Z,1.63
2022-10-26T19:31:38.294Z,1.98
2022-10-26T19:34:06.089Z,1.75
2022-10-26T19:36:33.829Z,2.33
2022-10-26T19:39:01.010Z,1.85
2022-10-26T19:41:28.248Z,1.92
2022-10-26T19:43:56.150Z,2.08
2022-10-26T19:46:25.176Z,2.53
2022-10-26T19:48:57.285Z,4.60
2022-10-26T19:51:25.067Z,2.95
2022-10-26T19:53:52.145Z,2.85
2022-10-26T19:56:20.725Z,7.97
2022-10-26T19:58:48.194Z,4.47
2022-10-26T20:01:15.806Z,2.90
2022-10-26T20:03:43.282Z,2.50
2022-10-26T20:06:14.094Z,2.78
2022-10-26T20:08:44.123Z,3.05
2022-10-26T20:11:15.467Z,3.28
2022-10-26T20:13:44.387Z,3.50
2022-10-26T20:16:12.229Z,3.72
2022-10-26T20:18:42.642Z,3.80
2022-10-26T20:21:14.343Z,5.15
2022-10-26T20:23:41.584Z,5.35
2022-10-26T20:26:08.890Z,4.15
2022-10-26T20:28:35.710Z,4.00
2022-10-26T20:31:02.563Z,3.42
2022-10-26T20:33:29.471Z,2.70
2022-10-26T20:36:00.021Z,2.40
2022-10-26T20:38:27.575Z,2.45
2022-10-26T20:40:57.126Z,2.33
2022-10-26T20:43:25.747Z,2.60
2022-10-26T20:45:53.400Z,3.22
2022-10-26T20:48:20.603Z,3.10
2022-10-26T20:51:03.618Z,2.33
2022-10-26T20:53:39.872Z,2.40
2022-10-26T20:56:10.668Z,2.42
2022-10-26T20:58:47.164Z,2.80
2022-10-26T21:01:34.345Z,2.50
2022-10-26T21:04:03.751Z,2.60
2022-10-26T21:06:40.047Z,2.60
2022-10-26T21:09:08.498Z,2.63
2022-10-26T21:11:36.018Z,3.17
2022-10-26T21:14:05.046Z,3.00
2022-10-26T21:16:31.884Z,2.97
2022-10-26T21:19:00.405Z,2.95
2022-10-26T21:24:11.723Z,2.70
2022-10-26T21:26:39.534Z,3.10
2022-10-26T21:29:06.279Z,2.45
2022-10-26T21:31:33.336Z,2.60
2022-10-26T21:34:00.195Z,2.80
2022-10-26T21:36:27.123Z,2.80
2022-10-26T21:38:53.869Z,2.83
2022-10-26T21:41:21.436Z,2.40
2022-10-26T21:43:59.094Z,2.85
2022-10-26T21:46:36.941Z,4.40
2022-10-26T21:49:04.079Z,5.30
2022-10-26T21:51:30.850Z,3.30
2022-10-26T21:53:58.417Z,2.97
2022-10-26T21:56:25.145Z,3.05
2022-10-26T21:58:51.929Z,2.90
2022-10-26T22:01:21.304Z,2.95
2022-10-26T22:03:48.888Z,2.65
2022-10-26T22:06:17.572Z,2.90
2022-10-26T22:08:45.829Z,2.80
2022-10-26T22:11:18.417Z,2.80
2022-10-26T22:13:46.764Z,3.00
2022-10-26T22:16:25.488Z,2.88
2022-10-26T22:18:54.118Z,2.58
2022-10-26T22:21:23.459Z,2.40
2022-10-26T22:23:52.652Z,2.60
2022-10-26T22:26:24.340Z,2.50
2022-10-26T22:28:56.175Z,2.55
2022-10-26T22:31:27.205Z,2.75
2022-10-26T22:33:56.057Z,2.50
2022-10-26T22:36:23.782Z,2.42
2022-10-26T22:38:51.175Z,2.40
2022-10-26T22:41:19.025Z,2.78
2022-10-26T22:43:46.085Z,2.67
2022-10-26T22:46:15.333Z,2.33
2022-10-26T22:48:45.340Z,2.58
2022-10-26T22:51:18.641Z,2.60
2022-10-26T22:53:45.789Z,2.15
2022-10-26T22:56:13.915Z,2.42
2022-10-26T22:58:40.912Z,2.80
2022-10-26T23:01:09.531Z,2.40
2022-10-26T23:03:37.238Z,2.40
2022-10-26T23:06:07.097Z,2.53
2022-10-26T23:08:34.109Z,2.75
2022-10-26T23:11:02.169Z,2.83
2022-10-26T23:13:29.354Z,2.50
2022-10-26T23:15:56.615Z,2.60
2022-10-26T23:18:23.580Z,2.80
2022-10-26T23:20:51.211Z,2.40
2022-10-26T23:23:18.864Z,2.55
2022-10-26T23:25:45.705Z,2.78
2022-10-26T23:28:12.514Z,2.70
2022-10-26T23:30:39.314Z,2.25
2022-10-26T23:33:06.120Z,2.15
2022-10-26T23:35:33.081Z,2.38
2022-10-26T23:38:00.246Z,2.20
2022-10-26T23:40:27.665Z,2.58
2022-10-26T23:42:54.624Z,2.95
2022-10-26T23:45:21.923Z,2.50
2022-10-26T23:47:49.637Z,2.33
2022-10-26T23:50:16.722Z,2.40
2022-10-26T23:52:50.091Z,2.20
2022-10-26T23:55:17.164Z,2.33
2022-10-26T23:57:43.890Z,2.22
